createdAt,value
2023-04-03T00:01:31.947Z,101653.34
2023-04-03T00:04:34.187Z,101655.84
2023-04-03T00:07:36.449Z,101653.66
2023-04-03T00:10:39.243Z,101656.81
2023-04-03T00:13:41.698Z,101660.47
2023-04-03T00:16:43.955Z,101658.09
2023-04-03T00:19:46.181Z,101652.94
2023-04-03T00:22:48.387Z,101660.81
2023-04-03T00:25:50.851Z,101664.16
2023-04-03T00:28:53.313Z,101660.81
2023-04-03T00:31:55.583Z,101666.13
2023-04-03T00:34:57.850Z,101656.81
2023-04-03T00:38:00.188Z,101658.47
2023-04-03T00:41:02.416Z,101673.50
2023-04-03T00:44:20.363Z,101659.81
2023-04-03T00:47:24.416Z,101660.63
2023-04-03T00:50:27.452Z,101662.63
2023-04-03T00:53:33.935Z,101664.63
2023-04-03T00:56:36.241Z,101669.00
2023-04-03T00:59:41.286Z,101661.97
2023-04-03T01:02:43.513Z,101660.97
2023-04-03T01:05:48.562Z,101666.69
2023-04-03T01:08:50.793Z,101669.16
2023-04-03T01:11:52.999Z,101672.84
2023-04-03T01:14:56.849Z,101664.81
2023-04-03T01:17:59.704Z,101668.16
2023-04-03T01:21:22.715Z,101664.13
2023-04-03T01:24:34.272Z,101667.75
2023-04-03T01:27:37.814Z,101671.44
2023-04-03T01:30:48.604Z,101676.16
2023-04-03T01:33:51.481Z,101673.31
2023-04-03T01:36:54.650Z,101680.53
2023-04-03T01:39:57.707Z,101683.22
2023-04-03T01:42:59.950Z,101680.53
2023-04-03T01:46:02.318Z,101685.38
2023-04-03T01:49:05.044Z,101688.09
2023-04-03T01:52:07.212Z,101683.56
2023-04-03T01:55:09.723Z,101683.03
2023-04-03T01:58:12.003Z,101681.03
2023-04-03T02:01:14.243Z,101694.75
2023-04-03T02:04:16.520Z,101685.94
2023-04-03T02:07:18.744Z,101683.25
2023-04-03T02:10:21.055Z,101687.44
2023-04-03T02:13:23.246Z,101695.81
2023-04-03T02:16:25.591Z,101696.41
2023-04-03T02:19:27.770Z,101699.66
2023-04-03T02:22:29.968Z,101699.66
2023-04-03T02:25:33.327Z,101699.72
2023-04-03T02:28:35.869Z,101701.72
2023-04-03T02:31:38.094Z,101704.88
2023-04-03T02:34:41.576Z,101696.72
2023-04-03T02:37:46.713Z,101703.72
2023-04-03T02:40:49.663Z,101711.06
2023-04-03T02:43:51.862Z,101712.22
2023-04-03T02:46:54.168Z,101720.38
2023-04-03T02:49:56.410Z,101718.34
2023-04-03T02:52:58.651Z,101718.84
2023-04-03T02:56:00.963Z,101712.34
2023-04-03T02:59:03.372Z,101712.31
2023-04-03T03:02:05.897Z,101710.44
2023-04-03T03:05:08.489Z,101722.31
2023-04-03T03:08:10.850Z,101718.59
2023-04-03T03:11:13.286Z,101722.47
2023-04-03T03:14:15.472Z,101720.47
2023-04-03T03:17:18.121Z,101720.84
2023-04-03T03:20:20.444Z,101722.97
2023-04-03T03:23:22.785Z,101725.97
2023-04-03T03:26:26.173Z,101732.38
2023-04-03T03:29:28.359Z,101721.28
2023-04-03T03:32:30.688Z,101724.97
2023-04-03T03:35:32.962Z,101731.09
2023-04-03T03:38:35.432Z,101736.28
2023-04-03T03:41:38.202Z,101741.50
2023-04-03T03:44:41.156Z,101740.13
2023-04-03T03:47:43.423Z,101740.28
2023-04-03T03:50:45.915Z,101745.13
2023-04-03T03:53:48.800Z,101743.97
2023-04-03T03:56:54.095Z,101740.28
2023-04-03T03:59:57.013Z,101747.41
2023-04-03T04:02:59.710Z,101753.03
2023-04-03T04:06:03.434Z,101755.81
2023-04-03T04:09:05.928Z,101759.56
2023-04-03T04:12:08.709Z,101762.84
2023-04-03T04:15:11.791Z,101757.50
2023-04-03T04:18:14.544Z,101762.34
2023-04-03T04:21:19.179Z,101764.28
2023-04-03T04:24:23.933Z,101766.38
2023-04-03T04:27:28.753Z,101768.03
2023-04-03T04:30:31.590Z,101780.44
2023-04-03T04:33:34.332Z,101771.59
2023-04-03T04:36:39.077Z,101772.13
2023-04-03T04:39:41.904Z,101769.75
2023-04-03T04:42:44.592Z,101768.28
2023-04-03T04:45:47.085Z,101776.84
2023-04-03T04:48:50.548Z,101778.19
2023-04-03T04:51:55.074Z,101779.88
2023-04-03T04:55:03.520Z,101777.41
2023-04-03T04:58:05.822Z,101781.41
2023-04-03T05:01:08.901Z,101794.16
2023-04-03T05:04:16.260Z,101795.69
2023-04-03T05:07:20.661Z,101799.53
2023-04-03T05:10:23.101Z,101794.53
2023-04-03T05:13:25.572Z,101800.03
2023-04-03T05:16:29.474Z,101794.88
2023-04-03T05:19:31.972Z,101795.75
2023-04-03T05:22:35.492Z,101796.63
2023-04-03T05:25:42.043Z,101802.00
2023-04-03T05:28:44.978Z,101794.38
2023-04-03T05:31:47.919Z,101802.75
2023-04-03T05:34:50.188Z,101803.72
2023-04-03T05:37:52.840Z,101803.78
2023-04-03T05:40:55.411Z,101804.06
2023-04-03T05:43:57.920Z,101806.91
2023-04-03T05:47:01.472Z,101810.00
2023-04-03T05:50:04.146Z,101816.97
2023-04-03T05:53:07.001Z,101812.94
2023-04-03T05:56:09.355Z,101816.31
2023-04-03T05:59:15.154Z,101817.50
2023-04-03T06:02:18.662Z,101815.16
2023-04-03T06:05:23.705Z,101825.50
2023-04-03T06:08:26.743Z,101820.34
2023-04-03T06:11:29.580Z,101827.13
2023-04-03T06:14:31.907Z,101838.53
2023-04-03T06:17:34.194Z,101829.06
2023-04-03T06:20:36.845Z,101843.56
2023-04-03T06:23:39.588Z,101842.50
2023-04-03T06:26:41.860Z,101841.47
2023-04-03T06:29:46.063Z,101842.69
2023-04-03T06:32:48.271Z,101845.63
2023-04-03T06:35:50.824Z,101858.13
2023-04-03T06:38:53.076Z,101859.19
2023-04-03T06:41:55.614Z,101864.75
2023-04-03T06:45:12.832Z,101848.94
2023-04-03T06:48:15.480Z,101853.22
2023-04-03T06:51:21.965Z,101854.88
2023-04-03T06:54:24.180Z,101863.19
2023-04-03T06:57:26.731Z,101859.22
2023-04-03T07:00:29.480Z,101872.22
2023-04-03T07:03:32.388Z,101871.81
2023-04-03T07:06:36.127Z,101872.34
2023-04-03T07:09:38.294Z,101889.09
2023-04-03T07:12:40.768Z,101873.84
2023-04-03T07:15:43.046Z,101874.88
2023-04-03T07:18:45.413Z,101870.78
2023-04-03T07:21:47.716Z,101873.59
2023-04-03T07:24:49.965Z,101890.00
2023-04-03T07:27:52.178Z,101890.09
2023-04-03T07:30:56.058Z,101893.41
2023-04-03T07:33:58.203Z,101909.47
2023-04-03T07:37:02.056Z,101896.94
2023-04-03T07:40:04.979Z,101900.66
2023-04-03T07:43:07.524Z,101900.53
2023-04-03T07:46:10.402Z,101910.31
2023-04-03T07:49:12.695Z,101901.72
2023-04-03T07:52:16.526Z,101915.75
2023-04-03T07:55:18.743Z,101908.59
2023-04-03T07:58:20.994Z,101913.03
2023-04-03T08:01:23.340Z,101909.13
2023-04-03T08:04:26.242Z,101913.00
2023-04-03T08:07:28.599Z,101918.31
2023-04-03T08:10:31.660Z,101919.66
2023-04-03T08:13:33.987Z,101934.03
2023-04-03T08:16:36.563Z,101912.81
2023-04-03T08:19:39.511Z,101915.47
2023-04-03T08:22:41.721Z,101916.09
2023-04-03T08:25:44.204Z,101914.44
2023-04-03T08:28:46.417Z,101909.78
2023-04-03T08:31:50.797Z,101911.25
2023-04-03T08:34:53.024Z,101910.78
2023-04-03T08:37:55.527Z,101912.09
2023-04-03T08:41:04.486Z,101909.31
2023-04-03T08:44:15.165Z,101919.63
2023-04-03T08:47:29.116Z,101916.19
2023-04-03T08:50:52.949Z,101913.09
2023-04-03T08:53:55.674Z,101918.50
2023-04-03T08:56:57.938Z,101922.28
2023-04-03T09:00:20.423Z,101928.94
2023-04-03T09:03:23.799Z,101921.81
2023-04-03T09:06:31.726Z,101926.34
2023-04-03T09:09:35.731Z,101909.78
2023-04-03T09:12:40.274Z,101915.69
2023-04-03T09:15:43.076Z,101920.50
2023-04-03T09:18:47.359Z,101915.44
2023-04-03T09:21:49.676Z,101908.38
2023-04-03T09:24:54.719Z,101910.66
2023-04-03T09:27:56.924Z,101903.72
2023-04-03T09:30:59.151Z,101910.34
2023-04-03T09:34:05.412Z,101900.28
2023-04-03T09:37:08.234Z,101904.72
2023-04-03T09:40:40.337Z,101906.38
2023-04-03T09:43:43.024Z,101900.03
2023-04-03T09:46:45.366Z,101894.91
2023-04-03T09:49:47.613Z,101898.13
2023-04-03T09:52:52.846Z,101893.03
2023-04-03T09:55:55.351Z,101886.94
2023-04-03T09:59:00.410Z,101879.06
2023-04-03T10:02:18.125Z,101881.47
2023-04-03T10:05:36.326Z,101880.03
2023-04-03T10:08:38.525Z,101887.94
2023-04-03T10:11:40.763Z,101893.38
2023-04-03T10:14:55.840Z,101888.09
2023-04-03T10:18:17.883Z,101883.84
2023-04-03T10:21:44.004Z,101882.72
2023-04-03T10:24:51.578Z,101875.31
2023-04-03T10:28:04.294Z,101881.81
2023-04-03T10:31:13.013Z,101882.16
2023-04-03T10:34:25.396Z,101878.91
2023-04-03T10:37:29.773Z,101880.88
2023-04-03T10:40:47.303Z,101871.94
2023-04-03T10:43:49.448Z,101866.31
2023-04-03T10:46:59.711Z,101872.34
2023-04-03T10:50:03.903Z,101873.47
2023-04-03T10:53:29.664Z,101863.44
2023-04-03T10:56:33.561Z,101873.63
2023-04-03T10:59:40.904Z,101862.97
2023-04-03T11:03:02.045Z,101870.66
2023-04-03T11:06:07.209Z,101873.66
2023-04-03T11:09:13.182Z,101870.16
2023-04-03T11:12:34.001Z,101881.78
2023-04-03T11:15:36.592Z,101873.16
2023-04-03T11:18:46.789Z,101865.63
2023-04-03T11:21:53.032Z,101852.19
2023-04-03T11:25:01.159Z,101858.25
2023-04-03T11:28:04.915Z,101858.66
2023-04-03T11:31:11.253Z,101852.41
2023-04-03T11:34:16.943Z,101846.16
2023-04-03T11:37:30.019Z,101848.88
2023-04-03T11:40:35.753Z,101857.63
2023-04-03T11:43:43.128Z,101847.22
2023-04-03T11:46:52.837Z,101844.50
2023-04-03T11:50:04.700Z,101848.84
2023-04-03T11:53:07.480Z,101850.28
2023-04-03T11:56:33.190Z,101857.94
2023-04-03T11:59:38.984Z,101860.69
2023-04-03T12:02:53.954Z,101842.22
2023-04-03T12:05:58.550Z,101844.41
2023-04-03T12:09:00.749Z,101844.94
2023-04-03T12:12:03.677Z,101840.34
2023-04-03T12:15:24.387Z,101852.28
2023-04-03T12:18:46.744Z,101844.06
2023-04-03T12:21:53.164Z,101857.16
2023-04-03T12:24:55.680Z,101852.91
2023-04-03T12:27:58.147Z,101846.78
2023-04-03T12:31:01.420Z,101819.94
2023-04-03T12:34:14.386Z,101841.19
2023-04-03T12:37:35.256Z,101843.06
2023-04-03T12:40:43.892Z,101846.13
2023-04-03T12:43:58.452Z,101849.25
2023-04-03T12:47:02.066Z,101835.31
2023-04-03T12:50:05.196Z,101843.25
2023-04-03T12:53:14.708Z,101843.47
2023-04-03T12:56:21.708Z,101840.56
2023-04-03T12:59:25.082Z,101833.63
2023-04-03T13:02:27.314Z,101841.34
2023-04-03T13:05:29.937Z,101839.91
2023-04-03T13:08:32.315Z,101847.75
2023-04-03T13:11:38.236Z,101845.78
2023-04-03T13:14:42.106Z,101840.56
2023-04-03T13:17:44.549Z,101841.97
2023-04-03T13:20:46.696Z,101851.03
2023-04-03T13:23:51.542Z,101849.88
2023-04-03T13:26:55.641Z,101842.09
2023-04-03T13:29:59.100Z,101839.56
2023-04-03T13:33:02.855Z,101830.13
2023-04-03T13:36:07.031Z,101840.53
2023-04-03T13:39:12.246Z,101836.59
2023-04-03T13:42:18.525Z,101834.09
2023-04-03T13:45:25.397Z,101849.06
2023-04-03T13:48:27.957Z,101836.28
2023-04-03T13:51:30.905Z,101838.66
2023-04-03T13:54:37.785Z,101836.78
2023-04-03T13:57:49.921Z,101837.84
2023-04-03T14:00:52.242Z,101837.00
2023-04-03T14:03:58.432Z,101834.47
2023-04-03T14:07:01.179Z,101826.47
2023-04-03T14:10:03.620Z,101836.19
2023-04-03T14:13:05.803Z,101851.75
2023-04-03T14:16:15.676Z,101835.78
2023-04-03T14:19:20.093Z,101836.56
2023-04-03T14:22:24.400Z,101844.88
2023-04-03T14:25:26.862Z,101842.34
2023-04-03T14:28:29.110Z,101830.25
2023-04-03T14:31:31.696Z,101831.50
2023-04-03T14:34:33.892Z,101823.75
2023-04-03T14:37:36.581Z,101839.22
2023-04-03T14:40:38.964Z,101831.63
2023-04-03T14:43:41.525Z,101839.00
2023-04-03T14:46:56.178Z,101835.38
2023-04-03T14:50:00.043Z,101831.72
2023-04-03T14:53:02.690Z,101837.34
2023-04-03T14:56:06.682Z,101829.41
2023-04-03T14:59:13.187Z,101831.22
2023-04-03T15:02:25.789Z,101833.88
2023-04-03T15:05:28.243Z,101835.91
2023-04-03T15:08:30.741Z,101829.63
2023-04-03T15:11:33.006Z,101823.34
2023-04-03T15:14:42.298Z,101816.88
2023-04-03T15:17:55.130Z,101832.03
2023-04-03T15:20:57.602Z,101842.41
2023-04-03T15:24:01.647Z,101839.78
2023-04-03T15:27:04.415Z,101846.69
2023-04-03T15:30:07.441Z,101846.03
2023-04-03T15:33:09.762Z,101844.81
2023-04-03T15:39:19.645Z,101837.66
2023-04-03T15:42:21.920Z,101842.16
2023-04-03T15:45:24.402Z,101842.97
2023-04-03T15:48:26.791Z,101839.19
2023-04-03T15:51:29.064Z,101838.53
2023-04-03T15:54:31.522Z,101837.53
2023-04-03T16:00:41.497Z,101832.84
2023-04-03T16:03:46.425Z,101832.66
2023-04-03T16:06:48.943Z,101838.91
2023-04-03T16:09:51.189Z,101834.97
2023-04-03T16:12:53.435Z,101835.81
2023-04-03T16:15:56.102Z,101834.94
2023-04-03T16:18:58.364Z,101826.03
2023-04-03T16:22:00.644Z,101835.66
2023-04-03T16:25:03.058Z,101841.25
2023-04-03T16:28:05.419Z,101836.41
2023-04-03T16:31:08.264Z,101801.25
2023-04-03T16:34:10.890Z,101832.38
2023-04-03T16:37:13.151Z,101839.66
2023-04-03T16:40:15.925Z,101835.19
2023-04-03T16:43:18.521Z,101832.50
2023-04-03T16:46:20.838Z,101840.75
2023-04-03T16:49:23.171Z,101842.78
2023-04-03T16:52:25.511Z,101852.28
2023-04-03T16:55:27.761Z,101852.72
2023-04-03T16:58:29.921Z,101855.50
2023-04-03T17:01:32.466Z,101855.66
2023-04-03T17:04:34.978Z,101858.41
2023-04-03T17:07:37.314Z,101864.88
2023-04-03T17:10:40.518Z,101863.00
2023-04-03T17:13:43.986Z,101833.13
2023-04-03T17:16:46.290Z,101860.19
2023-04-03T17:19:48.554Z,101862.34
2023-04-03T17:22:50.907Z,101862.25
2023-04-03T17:25:55.210Z,101867.66
2023-04-03T17:28:57.417Z,101853.97
2023-04-03T17:31:59.672Z,101866.91
2023-04-03T17:35:01.914Z,101863.31
2023-04-03T17:38:04.990Z,101865.31
2023-04-03T17:41:07.926Z,101860.25
2023-04-03T17:44:10.245Z,101861.16
2023-04-03T17:47:12.443Z,101860.66
2023-04-03T17:50:16.500Z,101871.41
2023-04-03T17:53:18.852Z,101864.19
2023-04-03T17:56:23.776Z,101865.63
2023-04-03T17:59:26.884Z,101858.09
2023-04-03T18:02:30.227Z,101871.06
2023-04-03T18:05:32.745Z,101860.94
2023-04-03T18:08:36.219Z,101857.25
2023-04-03T18:11:38.451Z,101861.44
2023-04-03T18:17:15.150Z,101847.25
2023-04-03T18:20:18.556Z,101862.13
2023-04-03T18:23:21.419Z,101851.31
2023-04-03T18:26:27.122Z,101859.97
2023-04-03T18:29:31.723Z,101862.56
2023-04-03T18:32:34.223Z,101863.47
2023-04-03T18:35:36.773Z,101866.22
2023-04-03T18:38:40.109Z,101862.06
2023-04-03T18:41:42.725Z,101852.59
2023-04-03T18:44:47.236Z,101845.63
2023-04-03T18:47:49.892Z,101858.66
2023-04-03T18:50:52.438Z,101849.88
2023-04-03T18:53:54.818Z,101845.47
2023-04-03T18:56:57.987Z,101842.94
2023-04-03T19:00:00.748Z,101826.47
2023-04-03T19:03:03.298Z,101839.72
2023-04-03T19:06:06.136Z,101844.00
2023-04-03T19:09:08.790Z,101844.59
2023-04-03T19:12:11.165Z,101839.41
2023-04-03T19:15:15.058Z,101842.13
2023-04-03T19:18:17.321Z,101851.66
2023-04-03T19:21:19.843Z,101843.09
2023-04-03T19:24:22.181Z,101831.69
2023-04-03T19:27:24.554Z,101834.56
2023-04-03T19:30:27.071Z,101835.22
2023-04-03T19:33:29.640Z,101825.72
2023-04-03T19:36:33.562Z,101829.59
2023-04-03T19:39:37.272Z,101835.66
2023-04-03T19:42:42.969Z,101824.66
2023-04-03T19:45:46.583Z,101843.47
2023-04-03T19:48:49.062Z,101839.19
2023-04-03T19:51:53.457Z,101834.41
2023-04-03T19:54:55.891Z,101834.59
2023-04-03T19:58:02.499Z,101838.84
2023-04-03T20:01:05.087Z,101836.94
2023-04-03T20:04:07.713Z,101820.03
2023-04-03T20:07:10.218Z,101843.25
2023-04-03T20:10:12.584Z,101838.75
2023-04-03T20:13:15.383Z,101832.50
2023-04-03T20:16:18.381Z,101826.81
2023-04-03T20:19:21.700Z,101823.81
2023-04-03T20:22:24.181Z,101826.91
2023-04-03T20:25:47.849Z,101823.22
2023-04-03T20:28:53.484Z,101819.75
2023-04-03T20:31:56.162Z,101807.09
2023-04-03T20:35:04.322Z,101814.72
2023-04-03T20:38:07.414Z,101794.34
2023-04-03T20:41:10.434Z,101816.75
2023-04-03T20:44:12.991Z,101814.56
2023-04-03T20:47:15.835Z,101802.88
2023-04-03T20:50:21.509Z,101795.50
2023-04-03T20:53:24.975Z,101812.63
2023-04-03T20:56:33.617Z,101787.97
2023-04-03T20:59:37.476Z,101807.22
2023-04-03T21:02:40.313Z,101818.63
2023-04-03T21:05:42.665Z,101813.78
2023-04-03T21:09:22.323Z,101823.72
2023-04-03T21:13:03.249Z,101822.03
2023-04-03T21:16:05.504Z,101817.47
2023-04-03T21:19:13.742Z,101817.69
2023-04-03T21:22:16.965Z,101821.00
2023-04-03T21:25:19.299Z,101806.75
2023-04-03T21:28:22.992Z,101821.66
2023-04-03T21:31:32.471Z,101820.97
2023-04-03T21:34:35.117Z,101819.50
2023-04-03T21:37:38.048Z,101815.50
2023-04-03T21:40:41.350Z,101824.53
2023-04-03T21:43:47.122Z,101819.31
2023-04-03T21:46:53.779Z,101825.72
2023-04-03T21:49:56.045Z,101830.75
2023-04-03T21:52:58.358Z,101813.97
2023-04-03T21:56:02.577Z,101812.63
2023-04-03T21:59:05.371Z,101805.59
2023-04-03T22:02:07.916Z,101811.78
2023-04-03T22:05:10.598Z,101811.47
2023-04-03T22:08:12.997Z,101811.28
2023-04-03T22:11:16.669Z,101807.78
2023-04-03T22:14:19.133Z,101808.63
2023-04-03T22:17:21.515Z,101802.25
2023-04-03T22:20:23.982Z,101802.59
2023-04-03T22:23:27.452Z,101795.88
2023-04-03T22:26:29.828Z,101787.81
2023-04-03T22:29:32.104Z,101787.50
2023-04-03T22:32:34.785Z,101790.19
2023-04-03T22:35:37.188Z,101795.19
2023-04-03T22:38:43.128Z,101794.72
2023-04-03T22:41:45.867Z,101789.00
2023-04-03T22:44:48.131Z,101800.75
2023-04-03T22:47:50.569Z,101798.72
2023-04-03T22:50:53.099Z,101798.56
2023-04-03T22:53:55.571Z,101798.06
2023-04-03T22:56:58.133Z,101792.50
2023-04-03T23:00:00.438Z,101791.84
2023-04-03T23:03:03.019Z,101791.84
2023-04-03T23:06:06.684Z,101793.19
2023-04-03T23:09:09.090Z,101794.38
2023-04-03T23:12:11.444Z,101788.84
2023-04-03T23:15:19.486Z,101780.13
2023-04-03T23:18:21.979Z,101771.41
2023-04-03T23:21:24.375Z,101784.97
2023-04-03T23:24:26.641Z,101772.56
2023-04-03T23:27:29.105Z,101777.09
2023-04-03T23:30:31.454Z,101759.97
2023-04-03T23:33:34.165Z,101772.81
2023-04-03T23:36:36.434Z,101762.75
2023-04-03T23:39:38.948Z,101768.28
2023-04-03T23:42:41.641Z,101766.00
2023-04-03T23:45:46.930Z,101736.47
2023-04-03T23:48:49.435Z,101765.28
2023-04-03T23:51:52.231Z,101761.25
2023-04-03T23:54:55.015Z,101754.59
2023-04-03T23:57:57.535Z,101751.31
